Grant, Louisiana
Current Conditions -  °F | °C
As of 3:54 PM on Thursday 23 Oct 2014 (Local Time) from KBKB Reporting Station
Clear Clear  
Wind Chill: 71°   Ceiling: Unl
Heat Index: 71°   Visibility: 10mi
Dew Point: 50°   Wind: 5mph
Humidity: 47%   Direction: NA
Pressure: 30.06"   Gusts: NA
Location:  30.79°N, 92.95°W
Report Text: KBKB 232054Z AUTO VRB04KT 10SM CLR 22/10 A3006 RMK AO2 SLP206 T02170100 56018
Loading
Personal Weather Stations






























Interactive Weather Map
Tropical Storm Tracking
New forecast layout! Learn more

10-Day Weather Forecast

Advertisements
Track Severe Weather on mobile